createdAt,value
2018-07-06T00:00:11.552Z,992.59
2018-07-06T00:01:11.719Z,992.57
2018-07-06T00:02:11.891Z,992.60
2018-07-06T00:04:54.200Z,992.61
2018-07-06T00:05:54.357Z,992.63
2018-07-06T00:06:54.518Z,992.65
2018-07-06T00:07:54.694Z,992.68
2018-07-06T00:08:54.857Z,992.67
2018-07-06T00:09:55.034Z,992.67
2018-07-06T00:10:55.227Z,992.67
2018-07-06T00:11:55.375Z,992.67
2018-07-06T00:12:55.525Z,992.74
2018-07-06T00:13:55.696Z,992.74
2018-07-06T00:14:55.867Z,992.74
2018-07-06T00:15:56.030Z,992.77
2018-07-06T00:16:56.200Z,992.76
2018-07-06T00:17:56.357Z,992.72
2018-07-06T00:18:56.526Z,992.72
2018-07-06T00:21:39.077Z,992.74
2018-07-06T00:22:39.244Z,992.78
2018-07-06T00:23:39.410Z,992.79
2018-07-06T00:24:39.585Z,992.80
2018-07-06T00:25:39.752Z,992.80
2018-07-06T00:26:39.920Z,992.84
2018-07-06T00:27:40.089Z,992.83
2018-07-06T00:28:40.259Z,992.85
2018-07-06T00:29:40.438Z,992.82
2018-07-06T00:30:40.597Z,992.81
2018-07-06T00:33:23.225Z,992.82
2018-07-06T00:34:23.337Z,992.80
2018-07-06T00:35:23.504Z,992.81
2018-07-06T00:36:23.671Z,992.86
2018-07-06T00:37:23.830Z,992.80
2018-07-06T00:38:23.991Z,992.81
2018-07-06T00:39:24.165Z,992.79
2018-07-06T00:40:24.336Z,992.79
2018-07-06T00:41:24.502Z,992.81
2018-07-06T00:42:24.671Z,992.80
2018-07-06T00:45:07.247Z,992.83
2018-07-06T00:46:07.407Z,992.80
2018-07-06T00:47:07.576Z,992.80
2018-07-06T00:48:07.749Z,992.84
2018-07-06T00:49:07.910Z,992.80
2018-07-06T00:50:08.085Z,992.83
2018-07-06T00:51:08.236Z,992.80
2018-07-06T00:52:08.406Z,992.80
2018-07-06T00:53:08.574Z,992.83
2018-07-06T00:54:08.738Z,992.80
2018-07-06T00:55:08.907Z,992.82
2018-07-06T00:56:09.081Z,992.81
2018-07-06T00:57:09.246Z,992.82
2018-07-06T00:58:09.430Z,992.80
2018-07-06T00:59:09.593Z,992.84
2018-07-06T01:01:52.210Z,992.88
2018-07-06T01:02:52.349Z,992.88
2018-07-06T01:03:52.493Z,992.85
2018-07-06T01:04:52.673Z,992.85
2018-07-06T01:05:52.842Z,992.88
2018-07-06T01:06:53.015Z,992.85
2018-07-06T01:07:53.194Z,992.86
2018-07-06T01:08:53.359Z,992.92
2018-07-06T01:09:53.536Z,992.94
2018-07-06T01:10:53.699Z,992.93
2018-07-06T01:13:35.973Z,993.02
2018-07-06T01:14:36.143Z,992.98
2018-07-06T01:15:36.319Z,992.98
2018-07-06T01:16:36.509Z,993.00
2018-07-06T01:17:36.700Z,993.00
2018-07-06T01:18:36.868Z,992.97
2018-07-06T01:19:37.040Z,992.97
2018-07-06T01:20:37.211Z,993.02
2018-07-06T01:21:37.426Z,992.99
2018-07-06T01:22:37.547Z,992.98
2018-07-06T01:25:20.109Z,992.97
2018-07-06T01:26:20.292Z,992.98
2018-07-06T01:27:20.460Z,993.03
2018-07-06T01:28:20.628Z,993.02
2018-07-06T01:29:20.802Z,993.01
2018-07-06T01:30:20.976Z,993.08
2018-07-06T01:31:21.143Z,993.03
2018-07-06T01:32:21.320Z,993.07
2018-07-06T01:33:21.484Z,993.04
2018-07-06T01:34:21.652Z,993.03
2018-07-06T01:37:03.918Z,993.04
2018-07-06T01:38:04.092Z,993.01
2018-07-06T01:39:04.261Z,993.02
2018-07-06T01:40:04.432Z,993.01
2018-07-06T01:41:04.609Z,993.04
2018-07-06T01:42:04.772Z,993.05
2018-07-06T01:43:04.942Z,993.07
2018-07-06T01:44:05.985Z,993.04
2018-07-06T01:45:05.278Z,993.05
2018-07-06T01:46:05.448Z,993.05
2018-07-06T01:47:05.612Z,993.07
2018-07-06T01:48:05.777Z,993.09
2018-07-06T01:49:05.945Z,993.08
2018-07-06T01:50:06.117Z,993.07
2018-07-06T01:51:06.292Z,993.10
2018-07-06T01:53:48.854Z,993.09
2018-07-06T01:54:49.052Z,993.13
2018-07-06T01:55:50.015Z,993.15
2018-07-06T01:56:49.382Z,993.17
2018-07-06T01:57:49.555Z,993.18
2018-07-06T01:58:49.722Z,993.19
2018-07-06T01:59:49.900Z,993.18
2018-07-06T02:00:50.076Z,993.19
2018-07-06T02:01:50.237Z,993.19
2018-07-06T02:02:50.406Z,993.18
2018-07-06T02:03:50.577Z,993.21
2018-07-06T02:04:50.741Z,993.22
2018-07-06T02:05:50.915Z,993.23
2018-07-06T02:06:51.089Z,993.25
2018-07-06T02:07:51.258Z,993.26
2018-07-06T02:10:33.820Z,993.27
2018-07-06T02:11:33.994Z,993.27
2018-07-06T02:12:34.157Z,993.24
2018-07-06T02:13:34.319Z,993.22
2018-07-06T02:14:34.491Z,993.23
2018-07-06T02:15:34.661Z,993.21
2018-07-06T02:16:34.835Z,993.24
2018-07-06T02:17:35.560Z,993.18
2018-07-06T02:18:35.226Z,993.20
2018-07-06T02:19:35.391Z,993.20
2018-07-06T02:20:35.561Z,993.24
2018-07-06T02:21:35.734Z,993.27
2018-07-06T02:22:35.904Z,993.24
2018-07-06T02:23:36.075Z,993.27
2018-07-06T02:24:36.245Z,993.26
2018-07-06T02:27:18.815Z,993.29
2018-07-06T02:28:18.986Z,993.33
2018-07-06T02:29:19.163Z,993.33
2018-07-06T02:30:19.326Z,993.38
2018-07-06T02:31:19.494Z,993.41
2018-07-06T02:32:19.669Z,993.43
2018-07-06T02:33:19.843Z,993.42
2018-07-06T02:34:20.009Z,993.47
2018-07-06T02:35:20.193Z,993.38
2018-07-06T02:36:20.376Z,993.40
2018-07-06T02:37:20.533Z,993.39
2018-07-06T02:38:20.705Z,993.43
2018-07-06T02:39:20.883Z,993.42
2018-07-06T02:40:21.057Z,993.45
2018-07-06T02:41:21.231Z,993.47
2018-07-06T02:44:03.794Z,993.48
2018-07-06T02:45:03.966Z,993.51
2018-07-06T02:46:04.124Z,993.48
2018-07-06T02:47:04.286Z,993.55
2018-07-06T02:48:04.456Z,993.57
2018-07-06T02:49:04.627Z,993.64
2018-07-06T02:50:04.796Z,993.58
2018-07-06T02:51:04.966Z,993.58
2018-07-06T02:52:05.138Z,993.59
2018-07-06T02:53:05.313Z,993.64
2018-07-06T02:54:05.472Z,993.66
2018-07-06T02:55:05.657Z,993.67
2018-07-06T02:56:05.796Z,993.71
2018-07-06T02:57:05.960Z,993.68
2018-07-06T02:58:06.119Z,993.69
2018-07-06T03:00:48.392Z,993.68
2018-07-06T03:01:48.565Z,993.67
2018-07-06T03:02:48.734Z,993.62
2018-07-06T03:03:48.894Z,993.65
2018-07-06T03:04:49.069Z,993.62
2018-07-06T03:05:49.242Z,993.67
2018-07-06T03:06:49.402Z,993.68
2018-07-06T03:07:49.571Z,993.68
2018-07-06T03:08:49.743Z,993.67
2018-07-06T03:09:49.910Z,993.65
2018-07-06T03:10:50.104Z,993.68
2018-07-06T03:11:50.272Z,993.65
2018-07-06T03:12:50.484Z,993.66
2018-07-06T03:13:50.632Z,993.67
2018-07-06T03:14:50.792Z,993.66
2018-07-06T03:17:33.684Z,993.65
2018-07-06T03:18:33.867Z,993.65
2018-07-06T03:19:34.036Z,993.64
2018-07-06T03:20:34.205Z,993.66
2018-07-06T03:21:34.376Z,993.70
2018-07-06T03:22:34.548Z,993.67
2018-07-06T03:23:34.855Z,993.73
2018-07-06T03:24:34.853Z,993.76
2018-07-06T03:25:35.017Z,993.76
2018-07-06T03:26:35.183Z,993.79
2018-07-06T03:27:35.359Z,993.78
2018-07-06T03:28:35.675Z,993.79
2018-07-06T03:29:35.706Z,993.79
2018-07-06T03:30:35.867Z,993.88
2018-07-06T03:31:36.037Z,993.82
2018-07-06T03:34:18.624Z,993.83
2018-07-06T03:35:18.789Z,993.81
2018-07-06T03:36:18.971Z,993.84
2018-07-06T03:37:19.204Z,993.80
2018-07-06T03:38:19.287Z,993.81
2018-07-06T03:39:19.462Z,993.77
2018-07-06T03:40:19.634Z,993.78
2018-07-06T03:41:19.803Z,993.76
2018-07-06T03:42:19.973Z,993.75
2018-07-06T03:43:20.142Z,993.72
2018-07-06T03:46:02.784Z,993.80
2018-07-06T03:47:02.946Z,993.80
2018-07-06T03:48:03.150Z,993.82
2018-07-06T03:49:03.290Z,993.80
2018-07-06T03:50:03.459Z,993.80
2018-07-06T03:51:03.628Z,993.84
2018-07-06T03:52:03.786Z,993.87
2018-07-06T03:53:03.962Z,993.88
2018-07-06T03:54:04.137Z,993.90
2018-07-06T03:55:04.293Z,993.92
2018-07-06T03:56:04.486Z,993.90
2018-07-06T03:57:04.650Z,993.91
2018-07-06T03:58:04.850Z,993.94
2018-07-06T03:59:05.004Z,993.94
2018-07-06T04:00:05.167Z,993.96
2018-07-06T04:02:47.449Z,993.96
2018-07-06T04:03:47.630Z,993.99
2018-07-06T04:04:47.798Z,994.02
2018-07-06T04:05:47.969Z,994.02
2018-07-06T04:06:48.134Z,994.03
2018-07-06T04:07:48.303Z,994.02
2018-07-06T04:08:48.474Z,994.03
2018-07-06T04:09:48.644Z,994.00
2018-07-06T04:10:48.822Z,993.96
2018-07-06T04:11:48.983Z,994.01
2018-07-06T04:12:49.151Z,994.03
2018-07-06T04:13:49.322Z,994.06
2018-07-06T04:14:49.495Z,994.10
2018-07-06T04:15:49.663Z,994.15
2018-07-06T04:16:49.829Z,994.13
2018-07-06T04:19:32.402Z,994.12
2018-07-06T04:20:32.569Z,994.18
2018-07-06T04:21:32.729Z,994.14
2018-07-06T04:22:32.897Z,994.21
2018-07-06T04:23:33.068Z,994.18
2018-07-06T04:24:33.246Z,994.23
2018-07-06T04:25:33.409Z,994.25
2018-07-06T04:26:33.608Z,994.24
2018-07-06T04:27:33.773Z,994.24
2018-07-06T04:28:33.917Z,994.21
2018-07-06T04:29:34.071Z,994.26
2018-07-06T04:30:34.238Z,994.28
2018-07-06T04:31:34.407Z,994.25
2018-07-06T04:32:34.586Z,994.27
2018-07-06T04:33:34.760Z,994.29
2018-07-06T04:37:35.342Z,994.26
2018-07-06T04:38:35.532Z,994.29
2018-07-06T04:39:35.709Z,994.30
2018-07-06T04:40:35.872Z,994.25
2018-07-06T04:41:36.039Z,994.27
2018-07-06T04:42:36.208Z,994.27
2018-07-06T04:43:36.371Z,994.30
2018-07-06T04:44:36.538Z,994.36
2018-07-06T04:45:36.695Z,994.32
2018-07-06T04:46:36.863Z,994.29
2018-07-06T04:49:19.139Z,994.32
2018-07-06T04:50:19.313Z,994.31
2018-07-06T04:51:19.480Z,994.32
2018-07-06T04:52:19.647Z,994.33
2018-07-06T04:53:19.822Z,994.31
2018-07-06T04:54:19.981Z,994.34
2018-07-06T04:55:20.152Z,994.33
2018-07-06T04:56:20.322Z,994.33
2018-07-06T04:57:20.490Z,994.39
2018-07-06T04:58:20.658Z,994.38
2018-07-06T05:01:03.250Z,994.39
2018-07-06T05:02:03.418Z,994.34
2018-07-06T05:03:03.585Z,994.38
2018-07-06T05:04:03.752Z,994.43
2018-07-06T05:05:03.941Z,994.46
2018-07-06T05:06:04.072Z,994.48
2018-07-06T05:07:04.257Z,994.48
2018-07-06T05:08:04.424Z,994.47
2018-07-06T05:09:04.592Z,994.45
2018-07-06T05:10:04.766Z,994.47
2018-07-06T05:12:47.045Z,994.50
2018-07-06T05:13:47.224Z,994.53
2018-07-06T05:14:47.398Z,994.54
2018-07-06T05:15:47.574Z,994.55
2018-07-06T05:16:47.748Z,994.57
2018-07-06T05:17:47.915Z,994.58
2018-07-06T05:18:48.077Z,994.55
2018-07-06T05:19:48.247Z,994.52
2018-07-06T05:20:48.426Z,994.54
2018-07-06T05:21:48.597Z,994.55
2018-07-06T05:24:20.866Z,994.53
2018-07-06T05:25:21.035Z,994.52
2018-07-06T05:26:21.207Z,994.57
2018-07-06T05:27:29.319Z,994.60
2018-07-06T05:28:21.582Z,994.55
2018-07-06T05:29:21.621Z,994.58
2018-07-06T05:30:21.781Z,994.57
2018-07-06T05:31:21.953Z,994.59
2018-07-06T05:32:22.134Z,994.59
2018-07-06T05:33:22.294Z,994.62
2018-07-06T05:34:22.465Z,994.68
2018-07-06T05:35:22.632Z,994.67
2018-07-06T05:36:22.802Z,994.71
2018-07-06T05:37:22.979Z,994.69
2018-07-06T05:40:05.538Z,994.75
2018-07-06T05:41:05.707Z,994.79
2018-07-06T05:42:05.878Z,994.83
2018-07-06T05:43:06.049Z,994.82
2018-07-06T05:44:06.215Z,994.86
2018-07-06T05:45:06.388Z,994.88
2018-07-06T05:46:06.555Z,994.88
2018-07-06T05:47:06.725Z,994.87
2018-07-06T05:48:06.897Z,994.87
2018-07-06T05:49:07.070Z,994.88
2018-07-06T05:50:07.246Z,994.91
2018-07-06T05:51:07.399Z,994.89
2018-07-06T05:52:16.511Z,994.93
2018-07-06T05:53:07.785Z,994.96
2018-07-06T05:54:07.970Z,995.02
2018-07-06T05:55:08.126Z,994.93
2018-07-06T05:56:08.287Z,995.09
2018-07-06T05:57:08.460Z,995.01
2018-07-06T05:58:08.623Z,995.10
2018-07-06T05:59:08.808Z,995.05
2018-07-06T06:00:16.116Z,995.07
2018-07-06T06:01:09.162Z,995.07
2018-07-06T06:02:09.335Z,995.04
2018-07-06T06:03:09.506Z,995.10
2018-07-06T06:04:09.673Z,995.11
2018-07-06T06:05:09.840Z,995.12
2018-07-06T06:06:10.029Z,995.02
2018-07-06T06:07:10.237Z,995.02
2018-07-06T06:08:10.391Z,995.02
2018-07-06T06:09:10.550Z,995.06
2018-07-06T06:10:10.743Z,995.11
2018-07-06T06:11:10.902Z,995.11
2018-07-06T06:12:11.115Z,995.11
2018-07-06T06:13:19.244Z,995.13
2018-07-06T06:14:11.496Z,995.12
2018-07-06T06:15:11.582Z,995.17
2018-07-06T06:16:11.775Z,995.11
2018-07-06T06:17:11.944Z,995.10
2018-07-06T06:18:12.145Z,995.16
2018-07-06T06:19:12.283Z,995.12
2018-07-06T06:21:44.894Z,995.15
2018-07-06T06:22:44.944Z,995.21
2018-07-06T06:23:45.124Z,995.20
2018-07-06T06:24:45.323Z,995.16
2018-07-06T06:25:45.487Z,995.13
2018-07-06T06:26:45.650Z,995.21
2018-07-06T06:27:45.823Z,995.21
2018-07-06T06:28:45.991Z,995.23
2018-07-06T06:29:46.159Z,995.21
2018-07-06T06:30:46.315Z,995.20
2018-07-06T06:31:46.488Z,995.27
2018-07-06T06:32:46.660Z,995.29
2018-07-06T06:33:46.897Z,995.31
2018-07-06T06:34:47.591Z,995.28
2018-07-06T06:35:47.173Z,995.28
2018-07-06T06:38:29.419Z,995.33
2018-07-06T06:39:29.645Z,995.34
2018-07-06T06:40:29.763Z,995.32
2018-07-06T06:41:29.936Z,995.31
2018-07-06T06:42:30.108Z,995.33
2018-07-06T06:43:30.281Z,995.34
2018-07-06T06:44:30.447Z,995.32
2018-07-06T06:45:30.615Z,995.33
2018-07-06T06:46:30.791Z,995.33
2018-07-06T06:47:30.939Z,995.35
2018-07-06T06:48:31.113Z,995.37
2018-07-06T06:49:31.283Z,995.39
2018-07-06T06:50:31.453Z,995.39
2018-07-06T06:51:31.619Z,995.40
2018-07-06T06:52:31.793Z,995.39
2018-07-06T06:55:14.089Z,995.40
2018-07-06T06:56:14.261Z,995.42
2018-07-06T06:57:14.434Z,995.42
2018-07-06T06:58:14.599Z,995.46
2018-07-06T06:59:14.761Z,995.43
2018-07-06T07:00:14.937Z,995.45
2018-07-06T07:01:15.099Z,995.45
2018-07-06T07:02:15.272Z,995.52
2018-07-06T07:03:15.430Z,995.51
2018-07-06T07:04:15.606Z,995.44
2018-07-06T07:06:58.185Z,995.49
2018-07-06T07:07:58.355Z,995.45
2018-07-06T07:08:58.523Z,995.47
2018-07-06T07:09:58.696Z,995.45
2018-07-06T07:10:58.866Z,995.52
2018-07-06T07:11:59.038Z,995.51
2018-07-06T07:12:59.207Z,995.52
2018-07-06T07:13:59.410Z,995.45
2018-07-06T07:15:00.482Z,995.51
2018-07-06T07:15:59.662Z,995.46
2018-07-06T07:18:32.244Z,995.57
2018-07-06T07:19:32.430Z,995.64
2018-07-06T07:20:32.601Z,995.59
2018-07-06T07:21:32.772Z,995.61
2018-07-06T07:22:40.939Z,995.63
2018-07-06T07:23:33.093Z,995.65
2018-07-06T07:24:33.249Z,995.64
2018-07-06T07:25:33.419Z,995.68
2018-07-06T07:26:33.605Z,995.69
2018-07-06T07:27:33.779Z,995.71
2018-07-06T07:28:33.944Z,995.70
2018-07-06T07:29:34.112Z,995.71
2018-07-06T07:30:34.282Z,995.76
2018-07-06T07:31:34.461Z,995.73
2018-07-06T07:32:35.506Z,995.70
2018-07-06T07:33:34.791Z,995.72
2018-07-06T07:34:34.961Z,995.72
2018-07-06T07:35:35.132Z,995.74
2018-07-06T07:36:35.319Z,995.77
2018-07-06T07:37:35.500Z,995.73
2018-07-06T07:40:17.778Z,995.72
2018-07-06T07:41:17.945Z,995.76
2018-07-06T07:42:18.121Z,995.76
2018-07-06T07:43:18.292Z,995.74
2018-07-06T07:44:18.457Z,995.75
2018-07-06T07:45:18.646Z,995.73
2018-07-06T07:46:18.804Z,995.75
2018-07-06T07:47:18.976Z,995.76
2018-07-06T07:48:19.150Z,995.79
2018-07-06T07:49:19.323Z,995.79
2018-07-06T07:50:19.496Z,995.74
2018-07-06T07:51:19.665Z,995.70
2018-07-06T07:52:19.849Z,995.71
2018-07-06T07:53:20.015Z,995.73
2018-07-06T07:54:27.870Z,995.75
2018-07-06T07:55:20.385Z,995.72
2018-07-06T07:56:20.583Z,995.76
2018-07-06T07:57:20.756Z,995.80
2018-07-06T07:58:28.086Z,995.75
2018-07-06T07:59:21.125Z,995.78
2018-07-06T08:00:21.375Z,995.81
2018-07-06T08:01:21.604Z,995.76
2018-07-06T08:02:21.639Z,995.81
2018-07-06T08:03:21.814Z,995.81
2018-07-06T08:04:21.988Z,995.72
2018-07-06T08:05:22.152Z,995.81
2018-07-06T08:06:22.328Z,995.81
2018-07-06T08:07:22.507Z,995.81
2018-07-06T08:08:22.680Z,995.82
2018-07-06T08:09:22.848Z,995.82
2018-07-06T08:10:23.020Z,995.87
2018-07-06T08:11:23.199Z,995.90
2018-07-06T08:12:23.363Z,995.86
2018-07-06T08:15:05.641Z,995.83
2018-07-06T08:16:05.815Z,995.87
2018-07-06T08:17:05.982Z,995.92
2018-07-06T08:18:06.153Z,995.89
2018-07-06T08:19:06.332Z,995.90
2018-07-06T08:20:06.503Z,995.96
2018-07-06T08:21:06.686Z,995.91
2018-07-06T08:22:06.856Z,995.89
2018-07-06T08:23:07.024Z,995.93
2018-07-06T08:24:14.649Z,995.99
2018-07-06T08:25:09.196Z,995.98
2018-07-06T08:26:07.489Z,995.98
2018-07-06T08:27:07.656Z,995.97
2018-07-06T08:28:07.815Z,996.01
2018-07-06T08:29:08.218Z,996.03
2018-07-06T08:30:08.156Z,995.99
2018-07-06T08:31:15.537Z,996.02
2018-07-06T08:32:08.586Z,996.04
2018-07-06T08:33:08.745Z,996.03
2018-07-06T08:34:08.918Z,996.02
2018-07-06T08:35:09.118Z,996.05
2018-07-06T08:36:09.312Z,996.02
2018-07-06T08:37:09.486Z,996.02
2018-07-06T08:38:09.662Z,996.04
2018-07-06T08:39:09.833Z,996.00
2018-07-06T08:40:10.004Z,996.01
2018-07-06T08:41:10.175Z,996.04
2018-07-06T08:43:53.765Z,996.02
2018-07-06T08:44:53.937Z,996.05
2018-07-06T08:45:54.090Z,996.05
2018-07-06T08:46:54.262Z,996.04
2018-07-06T08:47:54.435Z,996.07
2018-07-06T08:48:55.480Z,996.05
2018-07-06T08:49:54.777Z,996.05
2018-07-06T08:50:54.952Z,996.02
2018-07-06T08:51:55.116Z,996.06
2018-07-06T08:52:55.291Z,996.02
2018-07-06T08:53:55.466Z,996.07
2018-07-06T08:54:55.632Z,996.07
2018-07-06T08:55:55.848Z,996.09
2018-07-06T08:56:55.973Z,996.04
2018-07-06T08:58:03.821Z,996.02
2018-07-06T08:58:56.353Z,996.12
2018-07-06T08:59:56.517Z,996.07
2018-07-06T09:00:57.458Z,996.08
2018-07-06T09:02:04.857Z,996.03
2018-07-06T09:02:57.009Z,996.06
2018-07-06T09:03:57.182Z,996.07
2018-07-06T09:04:57.346Z,996.04
2018-07-06T09:05:57.524Z,996.08
2018-07-06T09:06:57.699Z,996.08
2018-07-06T09:07:57.886Z,996.09
2018-07-06T09:08:58.040Z,996.09
2018-07-06T09:09:58.213Z,996.10
2018-07-06T09:10:58.398Z,996.03
2018-07-06T09:11:58.561Z,996.04
2018-07-06T09:12:58.743Z,996.02
2018-07-06T09:13:58.909Z,996.07
2018-07-06T09:14:59.073Z,996.06
2018-07-06T09:15:59.265Z,996.06
2018-07-06T09:16:59.414Z,996.02
2018-07-06T09:19:41.814Z,995.97
2018-07-06T09:20:41.862Z,995.93
2018-07-06T09:21:42.034Z,995.91
2018-07-06T09:22:42.207Z,995.94
2018-07-06T09:23:42.380Z,995.94
2018-07-06T09:24:49.732Z,996.00
2018-07-06T09:25:42.880Z,996.07
2018-07-06T09:26:42.933Z,996.06
2018-07-06T09:27:50.469Z,996.04
2018-07-06T09:28:43.496Z,996.02
2018-07-06T09:29:43.483Z,995.98
2018-07-06T09:30:43.619Z,996.00
2018-07-06T09:31:43.772Z,996.05
2018-07-06T09:32:43.945Z,996.05
2018-07-06T09:33:44.119Z,995.96
2018-07-06T09:34:44.323Z,996.04
2018-07-06T09:35:44.533Z,996.07
2018-07-06T09:36:44.702Z,996.10
2018-07-06T09:37:44.877Z,996.10
2018-07-06T09:40:17.162Z,996.11
2018-07-06T09:41:17.323Z,996.19
2018-07-06T09:42:17.491Z,996.21
2018-07-06T09:43:17.711Z,996.22
2018-07-06T09:44:18.145Z,996.16
2018-07-06T09:45:18.858Z,996.16
2018-07-06T09:46:18.092Z,996.16
2018-07-06T09:47:25.402Z,996.08
2018-07-06T09:48:18.494Z,996.05
2018-07-06T09:49:18.543Z,996.12
2018-07-06T09:50:19.634Z,996.14
2018-07-06T09:51:27.603Z,996.11
2018-07-06T09:52:19.022Z,996.08
2018-07-06T09:53:19.194Z,996.12
2018-07-06T09:54:19.369Z,996.08
2018-07-06T09:55:19.536Z,996.05
2018-07-06T09:56:19.713Z,996.10
2018-07-06T09:57:19.901Z,996.16
2018-07-06T09:58:20.081Z,996.17
2018-07-06T09:59:22.222Z,996.17
2018-07-06T10:00:28.358Z,996.14
2018-07-06T10:01:20.523Z,996.20
2018-07-06T10:02:20.692Z,996.18
2018-07-06T10:03:43.861Z,996.17
2018-07-06T10:04:21.135Z,996.17
2018-07-06T10:05:21.361Z,996.15
2018-07-06T10:06:22.497Z,996.16
2018-07-06T10:07:23.846Z,996.18
2018-07-06T10:08:24.700Z,996.16
2018-07-06T10:10:25.568Z,996.22
2018-07-06T10:12:54.656Z,996.18
2018-07-06T10:13:54.669Z,996.19
2018-07-06T10:14:54.872Z,996.18
2018-07-06T10:15:55.013Z,996.26
2018-07-06T10:16:55.188Z,996.30
2018-07-06T10:17:55.714Z,996.19
2018-07-06T10:18:55.578Z,996.25
2018-07-06T10:19:55.692Z,996.31
2018-07-06T10:20:55.832Z,996.30
2018-07-06T10:21:55.995Z,996.34
2018-07-06T10:23:04.980Z,996.28
2018-07-06T10:23:56.257Z,996.35
2018-07-06T10:24:56.435Z,996.22
2018-07-06T10:25:56.621Z,996.30
2018-07-06T10:26:56.895Z,996.38
2018-07-06T10:27:57.030Z,996.30
2018-07-06T10:28:57.149Z,996.33
2018-07-06T10:29:57.288Z,996.32
2018-07-06T10:31:05.421Z,996.36
2018-07-06T10:31:57.582Z,996.38
2018-07-06T10:32:57.830Z,996.43
2018-07-06T10:33:57.977Z,996.40
2018-07-06T10:34:58.099Z,996.41
2018-07-06T10:35:58.294Z,996.42
2018-07-06T10:36:58.463Z,996.41
2018-07-06T10:37:58.636Z,996.39
2018-07-06T10:38:58.808Z,996.42
2018-07-06T10:40:01.865Z,996.39
2018-07-06T10:40:59.423Z,996.49
2018-07-06T10:44:35.517Z,996.47
2018-07-06T10:45:33.053Z,996.47
2018-07-06T10:46:33.256Z,996.49
2018-07-06T10:47:33.414Z,996.43
2018-07-06T10:48:33.589Z,996.45
2018-07-06T10:49:33.756Z,996.46
2018-07-06T10:50:33.933Z,996.51
2018-07-06T10:51:34.126Z,996.50
2018-07-06T10:52:34.296Z,996.55
2018-07-06T10:53:34.479Z,996.53
2018-07-06T10:54:35.541Z,996.52
2018-07-06T10:55:34.842Z,996.58
2018-07-06T10:56:35.024Z,996.56
2018-07-06T10:57:35.196Z,996.58
2018-07-06T10:58:43.115Z,996.57
2018-07-06T10:59:35.488Z,996.56
2018-07-06T11:00:35.661Z,996.59
2018-07-06T11:01:35.838Z,996.56
2018-07-06T11:02:43.184Z,996.60
2018-07-06T11:03:36.244Z,996.63
2018-07-06T11:04:37.079Z,996.61
2018-07-06T11:05:36.624Z,996.68
2018-07-06T11:06:36.880Z,996.66
2018-07-06T11:07:37.014Z,996.62
2018-07-06T11:08:37.089Z,996.59
2018-07-06T11:09:37.248Z,996.53
2018-07-06T11:10:37.422Z,996.60
2018-07-06T11:11:37.631Z,996.59
2018-07-06T11:12:37.762Z,996.63
2018-07-06T11:13:37.933Z,996.60
2018-07-06T11:14:38.118Z,996.65
2018-07-06T11:15:38.326Z,996.63
2018-07-06T11:16:38.535Z,996.70
2018-07-06T11:19:20.705Z,996.61
2018-07-06T11:20:20.874Z,996.59
2018-07-06T11:21:21.049Z,996.59
2018-07-06T11:22:29.227Z,996.58
2018-07-06T11:23:21.406Z,996.56
2018-07-06T11:24:21.570Z,996.56
2018-07-06T11:25:21.779Z,996.61
2018-07-06T11:26:21.896Z,996.60
2018-07-06T11:27:30.025Z,996.60
2018-07-06T11:28:22.271Z,996.58
2018-07-06T11:29:23.439Z,996.57
2018-07-06T11:30:22.516Z,996.58
2018-07-06T11:31:22.709Z,996.57
2018-07-06T11:32:22.878Z,996.59
2018-07-06T11:33:23.050Z,996.53
2018-07-06T11:34:23.219Z,996.57
2018-07-06T11:35:23.391Z,996.57
2018-07-06T11:36:23.559Z,996.62
2018-07-06T11:37:23.732Z,996.62
2018-07-06T11:38:23.906Z,996.61
2018-07-06T11:39:24.074Z,996.66
2018-07-06T11:40:24.245Z,996.64
2018-07-06T11:41:24.425Z,996.61
2018-07-06T11:42:24.601Z,996.61
2018-07-06T11:43:32.467Z,996.60
2018-07-06T11:44:24.890Z,996.63
2018-07-06T11:45:25.813Z,996.61
2018-07-06T11:46:25.230Z,996.66
2018-07-06T11:47:25.406Z,996.70
2018-07-06T11:48:25.584Z,996.65
2018-07-06T11:49:25.751Z,996.68
2018-07-06T11:50:28.873Z,996.69
2018-07-06T11:51:26.210Z,996.67
2018-07-06T11:52:26.353Z,996.68
2018-07-06T11:53:27.311Z,996.64
2018-07-06T11:56:09.830Z,996.62
2018-07-06T11:57:10.005Z,996.63
2018-07-06T11:58:10.209Z,996.64
2018-07-06T11:59:10.877Z,996.64
2018-07-06T12:00:10.551Z,996.59
2018-07-06T12:01:18.176Z,996.57
2018-07-06T12:02:10.836Z,996.59
2018-07-06T12:03:12.881Z,996.58
2018-07-06T12:04:12.014Z,996.58
2018-07-06T12:05:11.307Z,996.56
2018-07-06T12:06:11.481Z,996.57
2018-07-06T12:07:11.657Z,996.58
2018-07-06T12:08:11.837Z,996.64
2018-07-06T12:09:12.002Z,996.58
2018-07-06T12:10:12.170Z,996.56
2018-07-06T12:11:13.888Z,996.61
2018-07-06T12:12:13.405Z,996.61
2018-07-06T12:13:12.686Z,996.55
2018-07-06T12:14:12.858Z,996.59
2018-07-06T12:15:13.888Z,996.56
2018-07-06T12:17:55.308Z,996.52
2018-07-06T12:18:55.449Z,996.53
2018-07-06T12:19:55.620Z,996.56
2018-07-06T12:20:55.838Z,996.53
2018-07-06T12:21:55.957Z,996.56
2018-07-06T12:22:56.131Z,996.53
2018-07-06T12:23:56.297Z,996.49
2018-07-06T12:25:03.930Z,996.48
2018-07-06T12:25:56.603Z,996.50
2018-07-06T12:26:56.834Z,996.49
2018-07-06T12:27:56.989Z,996.52
2018-07-06T12:28:57.106Z,996.48
2018-07-06T12:30:04.576Z,996.52
2018-07-06T12:30:57.481Z,996.51
2018-07-06T12:31:57.656Z,996.47
2018-07-06T12:32:57.822Z,996.50
2018-07-06T12:33:58.000Z,996.47
2018-07-06T12:34:58.176Z,996.54
2018-07-06T12:35:58.378Z,996.46
2018-07-06T12:36:58.592Z,996.48
2018-07-06T12:37:58.717Z,996.50
2018-07-06T12:38:58.891Z,996.55
2018-07-06T12:39:59.059Z,996.51
2018-07-06T12:42:41.352Z,996.49
2018-07-06T12:43:41.519Z,996.50
2018-07-06T12:44:41.694Z,996.51
2018-07-06T12:45:41.869Z,996.56
2018-07-06T12:46:42.052Z,996.52
2018-07-06T12:47:42.230Z,996.54
2018-07-06T12:48:51.276Z,996.46
2018-07-06T12:49:42.655Z,996.51
2018-07-06T12:50:42.701Z,996.49
2018-07-06T12:51:42.878Z,996.52
2018-07-06T12:52:43.051Z,996.46
2018-07-06T12:53:43.217Z,996.48
2018-07-06T12:54:43.389Z,996.53
2018-07-06T12:55:43.561Z,996.50
2018-07-06T12:56:43.718Z,996.50
2018-07-06T12:57:43.889Z,996.54
2018-07-06T12:58:44.102Z,996.55
2018-07-06T12:59:44.242Z,996.52
2018-07-06T13:00:44.466Z,996.48
2018-07-06T13:01:52.241Z,996.45
2018-07-06T13:02:45.064Z,996.45
2018-07-06T13:03:44.907Z,996.49
2018-07-06T13:04:45.075Z,996.52
2018-07-06T13:05:45.257Z,996.44
2018-07-06T13:06:45.427Z,996.48
2018-07-06T13:07:45.600Z,996.55
2018-07-06T13:08:45.768Z,996.56
2018-07-06T13:09:45.944Z,996.53
2018-07-06T13:10:46.142Z,996.51
2018-07-06T13:11:46.272Z,996.54
2018-07-06T13:12:48.411Z,996.52
2018-07-06T13:13:46.580Z,996.48
2018-07-06T13:14:46.758Z,996.53
2018-07-06T13:15:46.932Z,996.53
2018-07-06T13:18:29.294Z,996.47
2018-07-06T13:19:32.233Z,996.49
2018-07-06T13:20:29.658Z,996.54
2018-07-06T13:21:29.842Z,996.49
2018-07-06T13:22:30.010Z,996.55
2018-07-06T13:23:30.181Z,996.58
2018-07-06T13:24:30.352Z,996.55
2018-07-06T13:25:30.523Z,996.51
2018-07-06T13:26:30.696Z,996.55
2018-07-06T13:27:30.882Z,996.55
2018-07-06T13:30:03.291Z,996.55
2018-07-06T13:31:03.630Z,996.57
2018-07-06T13:32:03.571Z,996.53
2018-07-06T13:33:14.214Z,996.53
2018-07-06T13:34:03.885Z,996.48
2018-07-06T13:35:04.055Z,996.48
2018-07-06T13:36:04.225Z,996.52
2018-07-06T13:37:04.398Z,996.53
2018-07-06T13:38:04.571Z,996.51
2018-07-06T13:39:04.792Z,996.56
2018-07-06T13:40:04.927Z,996.53
2018-07-06T13:41:05.141Z,996.49
2018-07-06T13:42:05.209Z,996.49
2018-07-06T13:43:06.201Z,996.51
2018-07-06T13:44:05.498Z,996.53